Time;durP1;ratioP1;P1;durP2;ratioP2;P2;SDS_P1;SDS_P2;PMS_P1;PMS_P2;Temp;Humidity;BMP_temperature;BMP_pressure;BME280_temperature;BME280_humidity;BME280_pressure;Samples;Min_cycle;Max_cycle;Signal;HPM_P1;HPM_P2
2023/04/11 00:02:08;;;;;;;7.68;1.20;;;7.10;99.90;;;;;;4941061;28;20081;-76
2023/04/11 00:04:37;;;;;;;12.15;1.50;;;7.00;99.90;;;;;;4954783;28;20046;-75
2023/04/11 00:07:03;;;;;;;11.52;1.77;;;7.00;99.90;;;;;;4946511;28;20042;-75
2023/04/11 00:09:29;;;;;;;9.23;1.98;;;7.00;99.90;;;;;;4956268;28;20097;-74
2023/04/11 00:11:56;;;;;;;5.93;1.20;;;7.10;99.90;;;;;;4954846;28;20035;-75
2023/04/11 00:14:21;;;;;;;11.00;1.48;;;7.00;99.90;;;;;;4940141;28;20650;-75
2023/04/11 00:16:48;;;;;;;10.25;1.70;;;7.10;99.90;;;;;;4958364;28;20282;-74
2023/04/11 00:19:15;;;;;;;10.75;1.25;;;7.10;99.90;;;;;;4958384;28;20027;-75
2023/04/11 00:21:42;;;;;;;9.23;1.15;;;7.10;99.90;;;;;;4956572;28;20043;-75
2023/04/11 00:24:08;;;;;;;13.10;1.23;;;7.00;99.90;;;;;;4968012;28;20042;-75
2023/04/11 00:26:34;;;;;;;7.10;1.13;;;7.00;99.90;;;;;;4948857;28;20062;-75
2023/04/11 00:29:00;;;;;;;11.77;1.52;;;7.00;99.90;;;;;;4934384;28;20110;-75
2023/04/11 00:31:25;;;;;;;6.53;0.90;;;7.00;99.90;;;;;;4954132;28;20062;-75
2023/04/11 00:33:51;;;;;;;10.02;2.00;;;7.00;99.90;;;;;;4955328;28;20113;-74
2023/04/11 00:36:16;;;;;;;13.40;1.38;;;7.00;99.90;;;;;;4956050;28;20030;-76
2023/04/11 00:38:43;;;;;;;8.23;1.52;;;6.90;99.90;;;;;;4955620;28;20498;-74
2023/04/11 00:41:09;;;;;;;10.00;1.10;;;6.90;99.90;;;;;;4959078;28;20634;-75
2023/04/11 00:43:35;;;;;;;12.40;1.70;;;6.90;99.90;;;;;;4954418;28;20047;-75
2023/04/11 00:46:02;;;;;;;10.90;1.48;;;7.00;99.90;;;;;;4957778;28;20058;-75
2023/04/11 00:48:27;;;;;;;6.45;1.30;;;7.00;99.90;;;;;;4958518;28;20114;-75
2023/04/11 00:50:54;;;;;;;12.57;1.40;;;7.10;99.90;;;;;;4945075;28;20565;-76
2023/04/11 00:53:21;;;;;;;11.05;1.80;;;7.10;99.90;;;;;;4956433;28;20041;-75
2023/04/11 00:55:47;;;;;;;15.63;1.60;;;7.10;99.90;;;;;;4961549;28;20213;-75
2023/04/11 00:58:15;;;;;;;13.65;1.55;;;7.10;99.90;;;;;;4959783;28;20045;-74
2023/04/11 01:00:41;;;;;;;13.27;1.45;;;7.10;99.90;;;;;;4961382;28;20035;-75
2023/04/11 01:03:07;;;;;;;7.50;1.60;;;7.10;99.90;;;;;;4949496;28;20062;-75
2023/04/11 01:05:34;;;;;;;10.15;1.67;;;7.10;99.90;;;;;;4954140;28;20039;-75
2023/04/11 01:08:01;;;;;;;5.65;1.10;;;7.10;99.90;;;;;;4946935;28;20129;-75
2023/04/11 01:10:29;;;;;;;5.47;1.20;;;7.10;99.90;;;;;;4962521;28;20042;-75
2023/04/11 01:12:59;;;;;;;12.15;1.20;;;7.10;99.90;;;;;;4957625;28;20026;-75
2023/04/11 01:15:25;;;;;;;9.07;1.77;;;7.10;99.90;;;;;;4960030;28;20034;-75
2023/04/11 01:17:54;;;;;;;11.65;1.35;;;7.10;99.90;;;;;;4962624;28;20027;-72
2023/04/11 01:20:20;;;;;;;9.43;1.55;;;7.10;99.90;;;;;;4961298;28;20158;-75
2023/04/11 01:22:50;;;;;;;13.38;1.50;;;7.10;99.90;;;;;;4961701;28;20038;-76
2023/04/11 01:25:21;;;;;;;11.57;1.75;;;7.10;99.90;;;;;;4958663;28;20039;-76
2023/04/11 01:27:47;;;;;;;9.80;1.52;;;7.00;99.90;;;;;;4950117;28;20856;-76
2023/04/11 01:30:13;;;;;;;12.77;1.55;;;7.00;99.90;;;;;;4960940;28;20038;-75
2023/04/11 01:32:38;;;;;;;7.70;1.60;;;7.00;99.90;;;;;;4958323;28;20085;-74
2023/04/11 01:35:05;;;;;;;9.95;1.67;;;7.00;99.90;;;;;;4957941;28;20726;-75
2023/04/11 01:37:31;;;;;;;10.77;1.85;;;7.00;99.90;;;;;;4973003;28;20043;-75
2023/04/11 01:39:57;;;;;;;7.45;1.33;;;6.90;99.90;;;;;;4961849;28;20403;-76
2023/04/11 01:42:24;;;;;;;13.82;1.40;;;7.00;99.90;;;;;;4960277;28;20110;-75
2023/04/11 01:44:51;;;;;;;9.25;1.23;;;7.00;99.90;;;;;;4957081;28;20406;-74
2023/04/11 01:47:17;;;;;;;8.90;2.00;;;7.00;99.90;;;;;;4976018;28;20027;-75
2023/04/11 01:49:42;;;;;;;7.10;1.20;;;7.00;99.90;;;;;;4951041;28;20094;-75
2023/04/11 01:52:08;;;;;;;8.38;1.55;;;7.00;99.90;;;;;;4969636;28;20510;-75
2023/04/11 01:54:34;;;;;;;19.58;2.63;;;6.90;99.90;;;;;;4959072;28;20093;-75
2023/04/11 01:57:00;;;;;;;14.23;2.28;;;6.90;99.90;;;;;;4957649;28;20038;-75
2023/04/11 01:59:26;;;;;;;10.35;1.40;;;6.90;99.90;;;;;;4969541;28;20120;-75
2023/04/11 02:01:51;;;;;;;12.20;1.02;;;6.90;99.90;;;;;;4953939;28;20229;-76
2023/04/11 02:04:17;;;;;;;7.35;1.70;;;6.80;99.90;;;;;;4960454;28;20074;-74
2023/04/11 02:06:43;;;;;;;11.63;1.50;;;6.80;99.90;;;;;;4959103;28;20054;-75
2023/04/11 02:09:08;;;;;;;5.75;1.48;;;6.80;99.90;;;;;;4973666;28;20770;-75
2023/04/11 02:11:34;;;;;;;8.48;1.60;;;6.80;99.90;;;;;;4973409;28;20453;-75
2023/04/11 02:14:01;;;;;;;13.63;1.90;;;6.80;99.90;;;;;;4942462;28;20031;-75
2023/04/11 02:16:28;;;;;;;6.78;1.65;;;6.70;99.90;;;;;;4956316;28;20062;-75
2023/04/11 02:18:54;;;;;;;12.45;1.30;;;6.70;99.90;;;;;;4955149;28;20106;-75
2023/04/11 02:21:20;;;;;;;6.55;1.52;;;6.70;99.90;;;;;;4955735;28;20047;-75
2023/04/11 02:23:46;;;;;;;11.38;2.10;;;6.70;99.90;;;;;;4956219;28;20494;-75
2023/04/11 02:26:11;;;;;;;15.48;1.50;;;6.70;99.90;;;;;;4948478;28;20034;-75
2023/04/11 02:28:37;;;;;;;7.72;1.30;;;6.60;99.90;;;;;;4959336;28;20027;-75
2023/04/11 02:31:03;;;;;;;8.98;1.33;;;6.60;99.90;;;;;;4957315;28;20031;-75
2023/04/11 02:33:29;;;;;;;9.90;1.30;;;6.50;99.90;;;;;;4971387;28;20034;-75
2023/04/11 02:35:54;;;;;;;14.20;1.77;;;6.50;99.90;;;;;;4955826;28;20035;-75
2023/04/11 02:38:20;;;;;;;11.85;1.50;;;6.50;99.90;;;;;;4939003;28;20338;-75
2023/04/11 02:40:46;;;;;;;13.73;2.58;;;6.50;99.90;;;;;;4956567;28;20038;-75
2023/04/11 02:43:12;;;;;;;15.73;1.95;;;6.50;99.90;;;;;;4956855;28;20033;-75
2023/04/11 02:45:37;;;;;;;7.40;1.63;;;6.50;99.90;;;;;;4952466;28;20134;-75
2023/04/11 02:48:04;;;;;;;8.80;1.70;;;6.50;99.90;;;;;;4938599;28;20482;-74
2023/04/11 02:50:29;;;;;;;8.95;1.88;;;6.40;99.90;;;;;;4941148;28;20279;-74
2023/04/11 02:52:55;;;;;;;10.15;1.52;;;6.40;99.90;;;;;;4957242;28;20121;-76
2023/04/11 02:55:22;;;;;;;9.73;1.83;;;6.40;99.90;;;;;;4971141;28;20031;-75
2023/04/11 02:57:48;;;;;;;8.20;1.52;;;6.40;99.90;;;;;;4970780;28;20566;-75
2023/04/11 03:00:14;;;;;;;13.40;1.25;;;6.30;99.90;;;;;;4954452;28;20027;-75
2023/04/11 03:02:40;;;;;;;9.63;1.35;;;6.30;99.90;;;;;;4956271;28;20533;-75
2023/04/11 03:07:47;;;;;;;9.88;1.38;;;6.30;99.90;;;;;;4971066;23;20146;-78
2023/04/11 03:10:13;;;;;;;9.13;1.48;;;6.30;99.90;;;;;;4906070;29;20024;-78
2023/04/11 03:12:39;;;;;;;12.45;1.42;;;6.40;99.90;;;;;;4903810;29;20488;-78
2023/04/11 03:15:05;;;;;;;7.60;1.45;;;6.40;99.90;;;;;;4909952;29;20031;-78
2023/04/11 03:17:30;;;;;;;14.68;1.77;;;6.50;99.90;;;;;;4906787;29;20088;-78
2023/04/11 03:19:56;;;;;;;11.27;1.55;;;6.50;99.90;;;;;;4905342;29;20080;-78
2023/04/11 03:22:22;;;;;;;8.40;1.30;;;6.50;99.90;;;;;;4902866;29;20490;-78
2023/04/11 03:24:48;;;;;;;7.65;1.42;;;6.40;99.90;;;;;;4908545;23;20111;-77
2023/04/11 03:27:14;;;;;;;11.15;1.42;;;6.40;99.90;;;;;;4898449;29;20522;-78
2023/04/11 03:29:39;;;;;;;12.85;2.22;;;6.30;99.90;;;;;;4899433;29;20130;-78
2023/04/11 03:32:05;;;;;;;8.40;1.35;;;6.30;99.90;;;;;;4892389;29;20038;-78
2023/04/11 03:34:31;;;;;;;11.57;1.58;;;6.30;99.90;;;;;;4882888;29;20064;-78
2023/04/11 03:36:56;;;;;;;7.65;1.75;;;6.30;99.90;;;;;;4900961;29;20224;-78
2023/04/11 03:39:22;;;;;;;10.55;1.52;;;6.30;99.90;;;;;;4901440;29;20032;-77
2023/04/11 03:41:48;;;;;;;8.20;1.50;;;6.30;99.90;;;;;;4900339;29;20109;-78
2023/04/11 03:44:14;;;;;;;9.70;1.38;;;6.30;99.90;;;;;;4901240;29;20040;-77
2023/04/11 03:46:39;;;;;;;11.05;1.58;;;6.30;99.90;;;;;;4898096;29;20083;-77
2023/04/11 03:49:05;;;;;;;9.32;1.85;;;6.30;99.90;;;;;;4904330;29;20095;-78
2023/04/11 03:51:31;;;;;;;14.55;1.80;;;6.30;99.90;;;;;;4918105;29;20341;-78
2023/04/11 03:53:57;;;;;;;16.85;1.73;;;6.30;99.90;;;;;;4904247;29;20048;-78
2023/04/11 03:56:22;;;;;;;12.82;2.15;;;6.20;99.90;;;;;;4897639;29;20547;-78
2023/04/11 03:58:48;;;;;;;13.05;1.35;;;6.20;99.90;;;;;;4904052;29;20036;-78
2023/04/11 04:01:14;;;;;;;14.60;1.63;;;6.20;99.90;;;;;;4904583;29;20032;-79
2023/04/11 04:03:39;;;;;;;11.68;1.27;;;6.20;99.90;;;;;;5357252;23;20584;-77
2023/04/11 04:06:05;;;;;;;14.82;1.88;;;6.10;99.90;;;;;;4902328;23;20567;-74
2023/04/11 04:08:31;;;;;;;12.88;1.73;;;6.10;99.90;;;;;;4891970;29;20577;-75
2023/04/11 04:10:57;;;;;;;9.55;1.27;;;6.10;99.90;;;;;;4896351;29;20040;-74
2023/04/11 04:13:22;;;;;;;7.40;1.15;;;6.10;99.90;;;;;;4899622;29;20331;-75
2023/04/11 04:15:50;;;;;;;11.77;1.27;;;6.00;99.90;;;;;;4899088;29;20055;-74
2023/04/11 04:18:16;;;;;;;11.82;1.65;;;6.00;99.90;;;;;;4895515;29;20380;-74
2023/04/11 04:20:41;;;;;;;8.32;1.30;;;5.90;99.90;;;;;;4897716;29;20043;-74
2023/04/11 04:23:07;;;;;;;9.18;1.60;;;5.90;99.90;;;;;;4900121;29;20468;-74
2023/04/11 04:25:33;;;;;;;17.23;1.65;;;5.80;99.90;;;;;;4898973;29;20032;-74
2023/04/11 04:27:59;;;;;;;11.48;2.15;;;5.80;99.90;;;;;;4899184;29;20115;-74
2023/04/11 04:30:27;;;;;;;9.02;2.38;;;5.80;99.90;;;;;;4901591;29;20868;-74
2023/04/11 04:32:57;;;;;;;9.98;1.95;;;5.80;99.90;;;;;;4902944;29;20076;-74
2023/04/11 04:35:23;;;;;;;7.07;1.85;;;5.80;99.90;;;;;;4906117;29;20653;-74
2023/04/11 04:37:49;;;;;;;12.55;1.45;;;5.80;99.90;;;;;;4899702;29;20039;-75
2023/04/11 04:40:19;;;;;;;9.65;1.85;;;5.70;99.90;;;;;;4903870;29;20039;-74
2023/04/11 04:42:48;;;;;;;13.05;2.15;;;5.70;99.90;;;;;;4905596;29;20519;-74
2023/04/11 04:45:15;;;;;;;8.63;1.40;;;5.80;99.90;;;;;;4904553;29;20166;-73
2023/04/11 04:47:41;;;;;;;11.63;1.30;;;5.80;99.90;;;;;;4904638;29;20024;-73
2023/04/11 04:50:07;;;;;;;9.32;1.30;;;5.80;99.90;;;;;;4906274;29;20107;-75
2023/04/11 04:52:33;;;;;;;14.20;1.60;;;5.80;99.90;;;;;;4904874;29;20487;-73
2023/04/11 04:54:59;;;;;;;15.00;2.10;;;5.80;99.90;;;;;;4890769;29;20036;-73
2023/04/11 04:57:27;;;;;;;9.90;1.20;;;5.80;99.90;;;;;;4903803;29;20583;-75
2023/04/11 04:59:56;;;;;;;11.70;1.55;;;5.80;99.90;;;;;;4902784;29;20535;-74
2023/04/11 05:02:24;;;;;;;7.15;1.33;;;5.80;99.90;;;;;;4902721;29;20442;-73
2023/04/11 05:04:50;;;;;;;11.15;1.65;;;5.80;99.90;;;;;;4902328;29;20044;-74
2023/04/11 05:07:17;;;;;;;10.68;2.08;;;5.80;99.90;;;;;;4895961;29;20322;-74
2023/04/11 05:09:43;;;;;;;10.93;1.73;;;5.70;99.90;;;;;;4902993;29;20028;-75
2023/04/11 05:12:08;;;;;;;12.10;1.80;;;5.80;99.90;;;;;;4892854;29;20437;-74
2023/04/11 05:14:34;;;;;;;9.98;1.40;;;5.80;99.90;;;;;;4891798;29;20032;-74
2023/04/11 05:16:59;;;;;;;15.45;1.58;;;5.80;99.90;;;;;;4902340;29;20036;-75
2023/04/11 05:19:25;;;;;;;7.88;1.33;;;5.80;99.90;;;;;;4897596;29;20135;-74
2023/04/11 05:21:51;;;;;;;6.28;1.20;;;5.80;99.90;;;;;;4900621;29;20035;-74
2023/04/11 05:24:16;;;;;;;13.73;1.80;;;5.80;99.90;;;;;;4886411;29;20257;-74
2023/04/11 05:26:42;;;;;;;10.20;1.92;;;5.80;99.90;;;;;;4896527;29;20223;-75
2023/04/11 05:29:09;;;;;;;10.00;1.75;;;5.80;99.90;;;;;;4903112;29;20036;-75
2023/04/11 05:31:36;;;;;;;11.05;1.35;;;5.80;99.90;;;;;;4899532;29;20036;-74
2023/04/11 05:34:02;;;;;;;12.27;1.27;;;5.80;99.90;;;;;;4902070;29;20036;-74
2023/04/11 05:36:28;;;;;;;16.52;2.05;;;5.90;99.90;;;;;;4887665;29;20036;-74
2023/04/11 05:38:54;;;;;;;20.17;2.25;;;5.90;99.90;;;;;;4891098;29;20409;-74
2023/04/11 05:41:20;;;;;;;14.15;1.92;;;5.90;99.90;;;;;;4902358;29;20036;-75
2023/04/11 05:43:45;;;;;;;12.98;1.55;;;6.00;99.90;;;;;;4902510;29;20044;-74
2023/04/11 05:46:11;;;;;;;13.65;1.85;;;6.10;99.90;;;;;;4898060;29;20031;-74
2023/04/11 05:48:38;;;;;;;16.35;1.80;;;6.20;99.90;;;;;;4899499;29;20055;-74
2023/04/11 05:51:04;;;;;;;12.50;1.83;;;6.30;99.90;;;;;;4903258;29;20464;-74
2023/04/11 05:53:30;;;;;;;10.55;1.48;;;6.40;99.90;;;;;;4901590;29;20126;-75
2023/04/11 05:55:56;;;;;;;11.18;1.55;;;6.40;99.90;;;;;;4902956;29;20025;-74
2023/04/11 05:58:23;;;;;;;12.65;1.60;;;6.60;99.90;;;;;;4896686;29;20244;-74
2023/04/11 06:00:49;;;;;;;9.75;1.48;;;6.70;99.90;;;;;;4897717;29;20309;-75
2023/04/11 06:03:15;;;;;;;9.63;1.30;;;6.80;99.90;;;;;;4899515;29;20073;-75
2023/04/11 06:05:41;;;;;;;6.10;1.45;;;7.00;99.90;;;;;;4900838;29;20033;-75
2023/04/11 06:08:07;;;;;;;94.22;38.42;;;7.10;99.90;;;;;;4895003;29;20050;-74
2023/04/11 06:10:34;;;;;;;16.60;4.13;;;7.20;99.90;;;;;;4901643;29;21049;-74
2023/04/11 06:13:00;;;;;;;13.15;2.13;;;7.50;99.90;;;;;;4902888;29;20104;-74
2023/04/11 06:15:26;;;;;;;12.05;1.48;;;7.70;99.90;;;;;;4903000;29;20036;-75
2023/04/11 06:17:52;;;;;;;19.20;2.20;;;8.10;99.90;;;;;;4898856;29;20043;-74
2023/04/11 06:20:19;;;;;;;12.27;1.50;;;8.30;99.90;;;;;;4888968;29;20441;-74
2023/04/11 06:22:45;;;;;;;8.35;1.40;;;8.70;99.90;;;;;;4892485;29;20036;-73
2023/04/11 06:25:11;;;;;;;136.63;59.30;;;9.20;99.90;;;;;;4889005;29;20036;-75
2023/04/11 06:27:37;;;;;;;27.60;7.47;;;9.60;99.90;;;;;;4897350;29;20028;-74
2023/04/11 06:30:03;;;;;;;11.15;1.50;;;10.00;99.90;;;;;;4900595;29;20059;-74
2023/04/11 06:32:29;;;;;;;13.02;1.65;;;10.00;99.90;;;;;;4902169;29;20435;-75
2023/04/11 06:34:54;;;;;;;12.38;1.60;;;10.30;99.90;;;;;;4902804;29;20035;-74
2023/04/11 06:37:21;;;;;;;7.70;1.10;;;10.70;99.90;;;;;;4895671;29;20036;-74
2023/04/11 06:39:47;;;;;;;14.90;2.25;;;11.20;99.90;;;;;;4898210;29;20055;-74
2023/04/11 06:42:13;;;;;;;151.75;61.92;;;11.80;99.60;;;;;;4901247;29;20034;-73
2023/04/11 06:44:38;;;;;;;20.10;5.07;;;12.80;94.60;;;;;;4901328;29;20174;-74
2023/04/11 06:47:04;;;;;;;12.65;1.42;;;13.40;91.10;;;;;;4898560;29;20375;-75
2023/04/11 06:49:30;;;;;;;10.05;1.58;;;13.70;90.10;;;;;;4897577;29;20322;-74
2023/04/11 06:51:56;;;;;;;9.35;1.30;;;14.00;89.60;;;;;;4898411;29;20080;-74
2023/04/11 06:54:22;;;;;;;13.07;1.30;;;14.20;84.20;;;;;;4897092;29;20032;-74
2023/04/11 06:56:51;;;;;;;8.48;1.40;;;14.50;81.60;;;;;;4899067;29;20032;-74
2023/04/11 06:59:20;;;;;;;9.20;1.38;;;15.10;75.80;;;;;;4903175;29;20032;-74
2023/04/11 07:01:48;;;;;;;7.65;1.30;;;15.90;70.50;;;;;;4896520;29;20514;-74
2023/04/11 07:04:14;;;;;;;8.88;1.48;;;17.20;61.90;;;;;;4895244;29;20040;-74
2023/04/11 07:06:40;;;;;;;3.95;1.20;;;18.70;53.60;;;;;;4890583;29;20147;-74
2023/04/11 07:09:08;;;;;;;8.45;1.23;;;20.00;49.70;;;;;;4898776;29;20032;-74
2023/04/11 07:11:34;;;;;;;8.57;1.40;;;20.90;47.30;;;;;;4901416;29;20031;-72
2023/04/11 07:14:00;;;;;;;9.52;1.48;;;21.20;44.20;;;;;;4901476;29;20062;-73
2023/04/11 07:16:26;;;;;;;7.68;1.33;;;20.60;45.10;;;;;;4902558;29;20036;-73
2023/04/11 07:18:53;;;;;;;7.07;1.30;;;19.50;47.80;;;;;;4900334;29;20059;-73
2023/04/11 07:21:19;;;;;;;7.40;1.20;;;18.60;49.30;;;;;;4898239;29;20028;-73
2023/04/11 07:23:44;;;;;;;7.40;1.30;;;19.00;50.00;;;;;;4893896;29;20051;-74
2023/04/11 07:26:12;;;;;;;5.60;1.08;;;19.00;50.00;;;;;;4897712;29;20248;-73
2023/04/11 07:28:39;;;;;;;11.07;1.60;;;18.90;49.70;;;;;;4889906;29;20035;-73
2023/04/11 07:31:08;;;;;;;11.48;2.00;;;18.30;51.20;;;;;;4891123;29;20546;-72
2023/04/11 07:33:35;;;;;;;8.55;1.40;;;18.00;52.70;;;;;;4899867;29;20039;-74
2023/04/11 07:36:01;;;;;;;8.45;1.42;;;17.60;53.30;;;;;;4895122;29;20046;-73
2023/04/11 07:38:30;;;;;;;9.23;1.52;;;17.00;55.40;;;;;;4891533;29;20458;-72
2023/04/11 07:40:57;;;;;;;7.70;1.33;;;16.80;58.00;;;;;;4888647;29;20042;-73
2023/04/11 07:43:24;;;;;;;9.52;1.48;;;16.40;60.80;;;;;;4893900;29;20031;-73
2023/04/11 07:45:50;;;;;;;11.30;1.40;;;16.50;63.50;;;;;;4892148;29;20135;-73
2023/04/11 07:48:16;;;;;;;9.65;1.55;;;17.80;57.50;;;;;;4895674;29;20028;-73
2023/04/11 07:50:41;;;;;;;6.72;1.40;;;19.90;52.20;;;;;;4896150;29;20552;-74
2023/04/11 07:53:09;;;;;;;6.82;1.20;;;23.00;45.90;;;;;;4891673;29;20063;-73
2023/04/11 07:55:35;;;;;;;9.65;1.23;;;25.60;39.10;;;;;;4893169;29;20032;-73
2023/04/11 07:58:01;;;;;;;8.60;1.58;;;26.70;35.10;;;;;;4891809;29;20143;-74
2023/04/11 08:00:27;;;;;;;6.55;1.60;;;27.30;35.00;;;;;;4895857;29;20681;-73
2023/04/11 08:02:53;;;;;;;5.15;1.10;;;28.00;32.90;;;;;;4889467;29;20039;-74
2023/04/11 08:05:19;;;;;;;11.77;1.48;;;29.00;31.70;;;;;;4892012;29;20040;-73
2023/04/11 08:07:44;;;;;;;9.55;1.67;;;29.00;32.40;;;;;;4894496;29;20049;-73
2023/04/11 08:10:10;;;;;;;8.85;1.52;;;29.80;30.70;;;;;;4893202;29;20339;-73
2023/04/11 08:12:36;;;;;;;7.40;1.65;;;29.60;29.20;;;;;;4890806;29;20584;-73
2023/04/11 08:15:01;;;;;;;10.27;1.67;;;29.20;30.50;;;;;;4896862;29;20035;-74
2023/04/11 08:17:27;;;;;;;8.45;1.80;;;28.50;32.40;;;;;;4898803;29;20036;-74
2023/04/11 08:19:56;;;;;;;9.35;1.60;;;27.60;31.30;;;;;;4888571;29;20024;-74
2023/04/11 08:22:22;;;;;;;8.95;1.50;;;26.50;32.50;;;;;;4881147;29;20165;-73
2023/04/11 08:24:48;;;;;;;7.20;1.42;;;26.50;34.90;;;;;;4890002;29;20061;-74
2023/04/11 08:27:14;;;;;;;7.97;1.40;;;27.00;33.10;;;;;;4901371;29;20144;-74
2023/04/11 08:29:39;;;;;;;9.88;1.63;;;28.20;32.80;;;;;;4896237;29;20464;-74
2023/04/11 08:32:05;;;;;;;8.02;1.27;;;29.60;31.40;;;;;;4895086;29;20035;-74
2023/04/11 08:34:32;;;;;;;7.97;1.50;;;30.90;29.80;;;;;;4892241;29;20036;-73
2023/04/11 08:36:57;;;;;;;8.82;1.38;;;30.30;27.40;;;;;;4894737;29;20032;-73
2023/04/11 08:39:23;;;;;;;7.25;1.60;;;29.40;28.70;;;;;;4901355;29;20349;-73
2023/04/11 08:41:49;;;;;;;10.55;1.92;;;28.50;29.80;;;;;;4899578;29;20039;-73
2023/04/11 08:44:15;;;;;;;7.25;1.45;;;28.50;30.90;;;;;;4896464;29;20519;-73
2023/04/11 08:46:42;;;;;;;7.22;1.50;;;28.20;31.10;;;;;;4893257;29;20087;-73
2023/04/11 08:49:08;;;;;;;4.90;1.15;;;27.50;30.10;;;;;;4896574;29;20180;-73
2023/04/11 08:51:33;;;;;;;7.72;1.45;;;27.70;32.80;;;;;;4911870;29;20039;-73
2023/04/11 08:54:04;;;;;;;8.38;1.35;;;26.10;32.00;;;;;;4894095;29;20044;-74
2023/04/11 08:56:30;;;;;;;;;;;25.80;33.20;;;;;;4890409;29;20101;-74
2023/04/11 08:58:56;;;;;;;6.45;1.20;;;26.20;32.80;;;;;;4896712;29;19919;-73
2023/04/11 09:01:29;;;;;;;9.02;1.70;;;26.30;32.20;;;;;;4898144;29;20039;-73
2023/04/11 09:03:55;;;;;;;7.72;1.38;;;27.30;33.60;;;;;;4898093;29;20066;-72
2023/04/11 09:06:21;;;;;;;7.65;1.35;;;26.60;34.00;;;;;;4894363;29;20460;-74
2023/04/11 09:08:46;;;;;;;7.25;1.48;;;26.70;31.40;;;;;;4890920;29;20632;-73
2023/04/11 09:11:12;;;;;;;6.43;1.02;;;26.50;32.30;;;;;;4890631;29;20064;-73
2023/04/11 09:13:37;;;;;;;6.32;1.38;;;25.30;31.90;;;;;;4897519;29;20043;-73
2023/04/11 09:16:09;;;;;;;7.50;1.23;;;23.40;37.00;;;;;;4900944;29;20514;-73
2023/04/11 09:18:36;;;;;;;5.93;1.80;;;21.80;38.90;;;;;;4900187;29;20113;-73
2023/04/11 09:21:04;;;;;;;9.05;1.35;;;20.30;42.80;;;;;;4894799;29;20191;-73
2023/04/11 09:23:29;;;;;;;9.73;1.40;;;19.40;45.20;;;;;;4896713;29;20040;-73
2023/04/11 09:25:56;;;;;;;11.73;2.00;;;18.80;46.60;;;;;;4897416;29;20507;-73
2023/04/11 09:28:22;;;;;;;7.20;1.65;;;18.70;48.20;;;;;;4894494;29;20029;-74
2023/04/11 09:30:51;;;;;;;9.48;1.67;;;18.00;48.60;;;;;;4894422;29;20040;-73
2023/04/11 09:33:27;;;;;;;13.40;1.83;;;17.20;53.20;;;;;;4896327;29;20857;-74
2023/04/11 09:35:55;;;;;;;9.23;1.55;;;16.80;59.50;;;;;;4899037;29;20032;-73
2023/04/11 09:38:29;;;;;;;10.73;1.73;;;16.30;61.90;;;;;;4899358;29;20028;-72
2023/04/11 09:40:56;;;;;;;12.60;1.67;;;15.50;71.00;;;;;;4892809;29;20226;-73
2023/04/11 09:43:21;;;;;;;11.10;1.70;;;16.30;69.60;;;;;;4893869;29;20447;-73
2023/04/11 09:45:47;;;;;;;8.55;2.10;;;16.90;56.70;;;;;;4895077;29;20036;-72
2023/04/11 09:48:12;;;;;;;11.43;1.67;;;17.50;60.10;;;;;;4903037;29;20635;-73
2023/04/11 09:50:39;;;;;;;11.00;1.45;;;17.40;56.00;;;;;;4894764;29;20096;-73
2023/04/11 09:53:05;;;;;;;10.90;1.55;;;18.30;58.80;;;;;;4894699;29;20035;-74
2023/04/11 09:55:31;;;;;;;7.15;1.58;;;20.40;50.00;;;;;;4896742;29;20033;-73
2023/04/11 09:57:58;;;;;;;11.60;1.90;;;22.50;44.10;;;;;;4892384;29;20095;-72
2023/04/11 10:00:31;;;;;;;9.77;1.70;;;24.40;42.00;;;;;;4893788;29;20079;-74
2023/04/11 10:02:57;;;;;;;9.35;1.58;;;24.40;38.80;;;;;;4895742;29;20032;-72
2023/04/11 10:05:27;;;;;;;9.50;2.10;;;23.70;38.20;;;;;;4894539;29;20367;-73
2023/04/11 10:08:06;;;;;;;10.25;1.60;;;24.20;39.00;;;;;;4883285;29;20048;-73
2023/04/11 10:10:34;;;;;;;10.20;1.63;;;26.00;37.10;;;;;;4890989;29;20055;-73
2023/04/11 10:13:00;;;;;;;12.38;2.42;;;27.70;34.80;;;;;;4896431;29;20432;-72
2023/04/11 10:15:25;;;;;;;7.88;1.73;;;28.80;33.70;;;;;;4898131;29;20024;-73
2023/04/11 10:18:10;;;;;;;8.10;1.65;;;28.70;31.70;;;;;;4898830;29;20130;-72
2023/04/11 10:20:48;;;;;;;12.05;2.40;;;27.50;32.10;;;;;;4899439;29;20036;-73
2023/04/11 10:23:15;;;;;;;11.55;1.70;;;26.50;31.40;;;;;;4908558;29;20046;-72
2023/04/11 10:25:51;;;;;;;14.05;2.22;;;26.00;33.90;;;;;;4897360;29;20626;-72
2023/04/11 10:28:33;;;;;;;10.05;2.13;;;25.20;34.10;;;;;;4897146;29;20160;-73
2023/04/11 10:31:12;;;;;;;10.98;1.92;;;24.50;37.40;;;;;;4882633;29;20051;-73
2023/04/11 10:33:39;;;;;;;10.50;1.83;;;23.20;38.10;;;;;;4893196;29;20514;-73
2023/04/11 10:36:09;;;;;;;12.15;1.90;;;20.50;42.60;;;;;;4890124;29;20354;-73
2023/04/11 10:38:43;;;;;;;12.18;2.17;;;18.90;45.70;;;;;;4885859;29;20042;-73
2023/04/11 10:41:30;;;;;;;14.02;2.00;;;17.60;50.90;;;;;;4896210;29;20375;-73
2023/04/11 10:44:19;;;;;;;12.57;2.15;;;15.70;58.00;;;;;;4560095;29;10000167;-72
2023/04/11 10:46:50;;;;;;;19.52;2.03;;;14.70;85.10;;;;;;4891899;29;20068;-72
2023/04/11 10:49:32;;;;;;;;;;;14.70;93.10;;;;;;4895661;29;20036;-72
2023/04/11 10:52:17;;;;;;;17.55;2.28;;;15.10;95.00;;;;;;4893172;29;19911;-72
2023/04/11 10:54:44;;;;;;;11.98;1.67;;;15.90;83.90;;;;;;4892873;29;20480;-72
2023/04/11 10:57:10;;;;;;;8.50;2.05;;;16.50;80.80;;;;;;4899168;29;20040;-75
2023/04/11 10:59:36;;;;;;;15.23;1.95;;;16.60;71.70;;;;;;4883833;29;20496;-74
2023/04/11 11:02:02;;;;;;;18.58;1.90;;;16.50;70.90;;;;;;4886697;29;20539;-74
2023/04/11 11:04:31;;;;;;;19.98;2.47;;;15.50;68.40;;;;;;4891508;29;20088;-74
2023/04/11 11:06:57;;;;;;;13.88;2.67;;;15.40;79.80;;;;;;4886562;29;20292;-74
2023/04/11 11:09:24;;;;;;;9.90;1.60;;;15.20;74.60;;;;;;4884816;29;20032;-74
2023/04/11 11:12:13;;;;;;;12.27;2.20;;;15.70;77.90;;;;;;4895430;29;20061;-75
2023/04/11 11:14:40;;;;;;;10.60;1.60;;;16.80;69.10;;;;;;4897562;29;20088;-75
2023/04/11 11:17:07;;;;;;;11.40;1.83;;;17.70;64.80;;;;;;4897078;29;20032;-75
2023/04/11 11:19:34;;;;;;;16.27;2.10;;;18.50;58.00;;;;;;4895426;29;20483;-75
2023/04/11 11:22:03;;;;;;;12.80;1.73;;;19.20;49.20;;;;;;4895718;29;20046;-75
2023/04/11 11:24:29;;;;;;;12.73;1.88;;;20.10;50.10;;;;;;4893801;29;20149;-75
2023/04/11 11:26:57;;;;;;;7.95;1.70;;;18.60;49.40;;;;;;4887827;29;20088;-75
2023/04/11 11:29:39;;;;;;;12.93;2.13;;;19.10;52.90;;;;;;4891464;29;20039;-75
2023/04/11 11:32:05;;;;;;;13.05;2.40;;;18.50;57.10;;;;;;4894586;29;20040;-75
2023/04/11 11:34:33;;;;;;;13.02;1.70;;;18.10;54.80;;;;;;4892160;29;20342;-75
2023/04/11 11:37:00;;;;;;;15.05;2.17;;;17.60;61.30;;;;;;4896788;29;20570;-75
2023/04/11 11:39:29;;;;;;;15.32;2.33;;;17.40;60.90;;;;;;4896401;29;20205;-75
2023/04/11 11:41:55;;;;;;;12.25;2.10;;;17.30;70.60;;;;;;4892931;29;20047;-75
2023/04/11 11:44:25;;;;;;;20.17;2.10;;;17.40;61.60;;;;;;4896192;29;20063;-75
2023/04/11 11:47:16;;;;;;;14.07;1.98;;;17.00;72.00;;;;;;4891890;29;20027;-75
2023/04/11 11:49:48;;;;;;;18.02;2.40;;;17.20;66.50;;;;;;4909838;29;20103;-75
2023/04/11 11:52:35;;;;;;;14.23;2.20;;;17.30;74.80;;;;;;4895488;29;20073;-75
2023/04/11 11:55:05;;;;;;;9.35;1.70;;;17.20;62.70;;;;;;4891635;29;20632;-75
2023/04/11 11:57:32;;;;;;;11.55;2.10;;;16.70;72.20;;;;;;4881502;29;20550;-75
2023/04/11 12:00:00;;;;;;;17.40;2.10;;;16.20;70.70;;;;;;4896348;29;20036;-75
2023/04/11 12:02:26;;;;;;;10.93;1.67;;;15.50;73.70;;;;;;4897388;29;20036;-75
2023/04/11 12:04:59;;;;;;;15.13;2.13;;;15.30;80.90;;;;;;4895387;29;20047;-75
2023/04/11 12:07:26;;;;;;;12.18;1.98;;;15.20;82.10;;;;;;4895414;29;20067;-75
2023/04/11 12:10:05;;;;;;;13.35;1.95;;;15.50;86.40;;;;;;4901661;29;20111;-74
2023/04/11 12:12:35;;;;;;;20.02;2.63;;;15.50;86.20;;;;;;4896222;29;20028;-74
2023/04/11 12:15:09;;;;;;;16.27;2.83;;;15.20;87.10;;;;;;4901204;29;20032;-75
2023/04/11 12:17:35;;;;;;;19.10;3.13;;;15.40;89.40;;;;;;4898185;29;20115;-75
2023/04/11 12:20:05;;;;;;;18.27;2.28;;;15.40;92.30;;;;;;4902096;29;20036;-75
2023/04/11 12:22:30;;;;;;;16.33;2.40;;;14.90;90.00;;;;;;4900854;29;20056;-75
2023/04/11 12:25:10;;;;;;;17.63;2.05;;;15.00;95.00;;;;;;4879368;29;20087;-75
2023/04/11 12:27:37;;;;;;;15.65;2.30;;;15.10;91.50;;;;;;4892894;29;20498;-74
2023/04/11 12:30:03;;;;;;;19.02;2.17;;;15.20;90.00;;;;;;4895176;29;20108;-75
2023/04/11 12:32:31;;;;;;;14.10;2.33;;;14.80;90.70;;;;;;4905130;29;20036;-74
2023/04/11 12:34:57;;;;;;;16.08;3.95;;;14.70;93.50;;;;;;4888949;29;20043;-74
2023/04/11 12:37:23;;;;;;;22.65;2.45;;;14.50;94.70;;;;;;4893736;29;20028;-75
2023/04/11 12:39:48;;;;;;;17.63;3.10;;;14.30;95.00;;;;;;4895583;29;20028;-75
2023/04/11 12:42:14;;;;;;;13.93;2.47;;;14.10;97.70;;;;;;4893861;29;20028;-75
2023/04/11 12:44:40;;;;;;;13.15;2.10;;;14.00;96.80;;;;;;4893663;29;20040;-75
2023/04/11 12:47:06;;;;;;;17.13;3.08;;;13.90;97.70;;;;;;4893539;29;20083;-73
2023/04/11 12:49:31;;;;;;;15.73;2.50;;;14.00;99.30;;;;;;4892478;29;20144;-75